Data for 01/07/2018

Time Sea-Level Adjusted Pressure Absolute Pressure Temperature Relative Humidity Dew Point   
(mb) (inHg) (mb) (inHg) (C) (F) (%) (C) (F)
00:05 1018 30.06 847 25.01 1.4 34.5 60 -5.6 21.9
00:10 1018 30.06 848 25.04 1.4 34.6 61 -5.2 22.6
00:15 1018 30.06 848 25.04 1.3 34.3 62 -5.3 22.5
00:20 1018 30.06 848 25.04 1.1 34 63 -5.1 22.8
00:25 1018 30.06 848 25.04 1 33.8 63 -5.3 22.4
00:30 1018 30.06 848 25.04 1 33.7 63 -5.4 22.3
00:35 1018 30.06 848 25.04 0.9 33.6 64 -5.3 22.5
00:40 1018 30.06 848 25.04 0.7 33.3 64 -5.4 22.2
00:45 1018 30.06 848 25.04 0.7 33.2 63 -5.6 21.9
00:50 1018 30.06 848 25.04 0.7 33.2 63 -5.6 22
00:55 1018 30.06 848 25.04 0.6 33.1 63 -5.7 21.8
01:00 1018 30.06 848 25.04 0.6 33.1 61 -6 21.2
01:05 1018 30.06 848 25.04 0.7 33.3 63 -5.6 21.9
01:10 1018 30.06 848 25.04 0.6 33.1 61 -6.1 21
01:15 1018 30.06 848 25.04 0.7 33.2 61 -5.9 21.3
01:20 1019 30.09 848 25.04 0.4 32.6 60 -6.4 20.4
01:25 1018 30.06 848 25.04 0.2 32.3 62 -6.3 20.6
01:30 1018 30.06 848 25.04 0.2 32.4 61 -6.5 20.2
01:35 1018 30.06 848 25.04 0.4 32.7 61 -6.4 20.5
01:40 1019 30.09 848 25.04 0.3 32.5 61 -6.3 20.7
01:45 1019 30.09 848 25.04 0.2 32.4 61 -6.5 20.3
01:50 1019 30.09 848 25.04 0.4 32.7 59 -6.7 20
01:55 1019 30.09 848 25.04 0.6 33.1 59 -6.5 20.4
02:00 1019 30.09 848 25.04 0.5 32.8 60 -6.4 20.5
02:05 1019 30.09 848 25.04 0.4 32.7 59 -6.6 20.1
02:10 1019 30.09 848 25.04 0.5 32.9 59 -6.6 20.2
02:15 1019 30.09 848 25.04 0.4 32.7 60 -6.5 20.3
02:20 1019 30.09 848 25.04 0.2 32.3 62 -6.3 20.7
02:25 1019 30.09 848 25.04 -0.3 31.5 64 -6.4 20.5
02:30 1019 30.09 848 25.04 -0.6 30.9 65 -6.4 20.5
02:35 1019 30.09 848 25.04 -0.7 30.8 65 -6.4 20.4
02:40 1019 30.09 848 25.04 -0.6 30.9 64 -6.6 20.2
02:45 1019 30.09 848 25.04 -0.4 31.4 64 -6.4 20.4
02:50 1019 30.09 848 25.04 -0.2 31.7 63 -6.3 20.7
02:55 1019 30.09 848 25.04 -0.2 31.6 64 -6.3 20.7
03:00 1019 30.09 848 25.04 -0.6 30.8 66 -6.3 20.7
03:05 1019 30.09 848 25.04 -0.9 30.3 66 -6.5 20.2
03:10 1019 30.09 848 25.04 -0.8 30.6 64 -6.6 20.1
03:15 1019 30.09 848 25.04 -0.5 31.2 64 -6.5 20.3
03:20 1019 30.09 848 25.04 -0.5 31.1 64 -6.4 20.5
03:25 1019 30.09 848 25.04 -0.8 30.5 65 -6.6 20.1
03:30 1019 30.09 848 25.04 -0.8 30.5 65 -6.7 20
03:35 1019 30.09 848 25.04 -0.4 31.2 63 -6.6 20.2
03:40 1019 30.09 848 25.04 -0.3 31.4 63 -6.6 20.1
03:45 1019 30.09 848 25.04 -0.1 31.8 62 -6.5 20.2
03:50 1019 30.09 848 25.04 0.2 32.4 60 -6.5 20.2
03:55 1019 30.09 848 25.04 -0 32 63 -6.2 20.8
04:00 1019 30.09 848 25.04 -1.1 30 67 -6.5 20.2
04:05 1019 30.09 848 25.04 -1.5 29.3 67 -6.9 19.7
04:10 1018 30.06 848 25.04 -1.1 30 66 -6.7 20
04:15 1018 30.06 848 25.04 -0.9 30.4 65 -6.6 20.1
04:20 1018 30.06 848 25.04 -0.6 30.9 64 -6.6 20
04:25 1019 30.09 848 25.04 -0.3 31.5 63 -6.4 20.5
04:30 1019 30.09 848 25.04 -0.7 30.8 65 -6.5 20.3
04:35 1019 30.09 848 25.04 -0.8 30.6 64 -6.8 19.7
04:40 1019 30.09 848 25.04 -0.6 30.9 64 -6.7 20
04:45 1019 30.09 848 25.04 -0.6 30.9 67 -6 21.2
04:50 1019 30.09 848 25.04 -0.6 31 65 -6.3 20.7
04:55 1019 30.09 848 25.04 -0.5 31 64 -6.6 20.1
05:00 1019 30.09 848 25.04 -0.3 31.5 63 -6.5 20.3
05:05 1019 30.09 848 25.04 -0.5 31.2 65 -6.3 20.7
05:10 1019 30.09 848 25.04 -0.6 30.9 65 -6.5 20.4
05:15 1019 30.09 848 25.04 -0.4 31.3 64 -6.4 20.4
05:20 1019 30.09 848 25.04 -0.1 31.8 62 -6.5 20.4
05:25 1019 30.09 848 25.04 -0.1 31.8 63 -6.4 20.5
05:30 1019 30.09 848 25.04 0 32 63 -6.1 21
05:35 1019 30.09 848 25.04 -0.3 31.5 65 -6.1 21
05:40 1019 30.09 848 25.04 -0.6 30.9 66 -6.3 20.7
05:45 1019 30.09 848 25.04 -0.3 31.5 64 -6.4 20.5
05:50 1019 30.09 848 25.04 -0.2 31.6 65 -6.1 21.1
05:55 1019 30.09 848 25.04 -0.3 31.4 64 -6.2 20.8
06:00 1019 30.09 848 25.04 -0.5 31.2 66 -6 21.2
06:05 1019 30.09 848 25.04 -0.7 30.7 67 -6.1 21.1
06:10 1019 30.09 848 25.04 -0.6 30.9 65 -6.3 20.6
06:15 1019 30.09 848 25.04 -0.3 31.5 63 -6.5 20.3
06:20 1019 30.09 848 25.04 0.2 32.3 62 -6.3 20.7
06:25 1019 30.09 848 25.04 0.1 32.2 63 -6.2 20.9
06:30 1019 30.09 848 25.04 0.1 32.2 62 -6.3 20.7
06:35 1019 30.09 848 25.04 0.3 32.5 62 -6.2 20.8
06:40 1019 30.09 848 25.04 0.3 32.5 62 -6.2 20.8
06:45 1019 30.09 848 25.04 0.3 32.6 62 -6.2 20.8
06:50 1019 30.09 848 25.04 0.3 32.6 62 -6.1 21
06:55 1019 30.09 848 25.04 0.2 32.3 62 -6.2 20.9
07:00 1019 30.09 848 25.04 0 32 62 -6.4 20.5
07:05 1019 30.09 848 25.04 0.2 32.3 62 -6.2 20.9
07:10 1019 30.09 848 25.04 0.2 32.4 62 -6.2 20.8
07:15 1019 30.09 848 25.04 0.4 32.7 62 -6.1 21
07:20 1019 30.09 848 25.04 0.1 32.2 65 -5.7 21.7
07:25 1019 30.09 849 25.07 -0.2 31.6 65 -5.9 21.4
07:30 1019 30.09 849 25.07 -0.1 31.8 63 -6.3 20.7
07:35 1019 30.09 849 25.07 0.2 32.4 62 -6.2 20.8
07:40 1019 30.09 849 25.07 0.6 33.1 61 -6 21.2
07:45 1019 30.09 849 25.07 0.6 33 62 -5.9 21.3
07:50 1019 30.09 848 25.04 0.1 32.3 65 -5.7 21.7
07:55 1019 30.09 848 25.04 0.1 32.2 63 -6.1 21.1
08:00 1019 30.09 849 25.07 0.5 32.9 62 -6 21.2
08:05 1020 30.12 849 25.07 0.7 33.3 62 -5.8 21.6
08:10 1019 30.09 849 25.07 0.5 33 63 -5.7 21.8
08:15 1020 30.12 849 25.07 0.5 32.9 63 -5.8 21.5
08:20 1020 30.12 849 25.07 0.6 33.1 62 -5.8 21.6
08:25 1019 30.09 849 25.07 0.7 33.3 62 -5.8 21.6
08:30 1020 30.12 849 25.07 0.5 32.9 63 -5.6 21.9
08:35 1020 30.12 849 25.07 0.6 33 63 -5.7 21.7
08:40 1020 30.12 849 25.07 0.9 33.6 62 -5.6 21.9
08:45 1020 30.12 849 25.07 1.2 34.1 61 -5.6 22
08:50 1020 30.12 849 25.07 1.5 34.7 60 -5.5 22.1
08:55 1020 30.12 849 25.07 1.8 35.2 59 -5.4 22.2
09:00 1020 30.12 849 25.07 1.9 35.5 58 -5.3 22.4
09:05 1020 30.12 849 25.07 2.1 35.8 58 -5.4 22.3
09:10 1019 30.09 849 25.07 2.3 36.2 57 -5.3 22.5
09:15 1019 30.09 849 25.07 2.8 37.1 55 -5.4 22.3
09:20 1020 30.12 849 25.07 3 37.4 54 -5.3 22.5
09:25 1020 30.12 849 25.07 3.6 38.5 54 -4.8 23.4
09:30 1020 30.12 849 25.07 3.5 38.2 53 -5.2 22.7
09:35 1020 30.12 849 25.07 3.8 38.9 53 -4.9 23.2
09:40 1020 30.12 849 25.07 3.7 38.6 54 -4.8 23.4
09:45 1020 30.12 849 25.07 3.4 38 55 -4.7 23.5
09:50 1020 30.12 849 25.07 3.2 37.8 56 -4.8 23.4
09:55 1020 30.12 849 25.07 3.4 38 56 -4.7 23.6
10:00 1020 30.12 849 25.07 3.4 38 56 -4.7 23.5
10:05 1020 30.12 849 25.07 3.4 38.1 55 -4.8 23.3
10:10 1020 30.12 849 25.07 3.3 38 56 -4.6 23.7
10:15 1020 30.12 849 25.07 3.4 38.1 56 -4.7 23.6
10:20 1020 30.12 849 25.07 3.3 38 56 -4.6 23.7
10:25 1020 30.12 849 25.07 3.5 38.2 55 -4.7 23.6
10:30 1020 30.12 849 25.07 3.7 38.6 54 -4.8 23.3
10:35 1020 30.12 849 25.07 4 39.3 53 -4.6 23.7
10:40 1020 30.12 849 25.07 4.3 39.8 52 -4.6 23.8
10:45 1020 30.12 849 25.07 4.3 39.7 53 -4.5 23.9
10:50 1020 30.12 849 25.07 4.1 39.4 54 -4.4 24.1
10:55 1020 30.12 849 25.07 4.4 39.8 52 -4.6 23.7
11:00 1019 30.09 849 25.07 4.2 39.6 53 -4.6 23.7
11:05 1019 30.09 849 25.07 4.3 39.7 52 -4.7 23.5
11:10 1019 30.09 849 25.07 4.3 39.7 53 -4.5 23.8
11:15 1019 30.09 849 25.07 3.7 38.7 56 -4.3 24.2
11:20 1019 30.09 848 25.04 3.6 38.4 56 -4.5 23.9
11:25 1019 30.09 848 25.04 3.5 38.3 56 -4.3 24.2
11:30 1019 30.09 848 25.04 3.7 38.7 55 -4.5 23.9
11:35 1019 30.09 848 25.04 4 39.2 54 -4.4 24.1
11:40 1019 30.09 848 25.04 4 39.2 54 -4.6 23.7
11:45 1019 30.09 848 25.04 4 39.2 54 -4.5 24
11:50 1019 30.09 848 25.04 4 39.2 54 -4.6 23.8
11:55 1019 30.09 848 25.04 3.6 38.5 54 -4.8 23.4
12:00 1019 30.09 848 25.04 3.7 38.6 55 -4.6 23.7
12:05 1019 30.09 848 25.04 3.6 38.5 56 -4.4 24
12:10 1019 30.09 848 25.04 3.6 38.5 55 -4.6 23.7
12:15 1019 30.09 848 25.04 3.4 38.2 56 -4.6 23.8
12:20 1019 30.09 848 25.04 3.5 38.3 55 -4.7 23.6
12:25 1019 30.09 848 25.04 3.6 38.5 55 -4.7 23.6
12:30 1019 30.09 848 25.04 3.6 38.5 54 -4.7 23.5
12:35 1019 30.09 848 25.04 3.7 38.6 54 -4.8 23.3
12:40 1019 30.09 848 25.04 3.6 38.4 55 -4.6 23.8
12:45 1018 30.06 848 25.04 3.6 38.5 55 -4.6 23.8
12:50 1019 30.09 848 25.04 3.5 38.3 56 -4.4 24.1
12:55 1018 30.06 848 25.04 3.5 38.3 57 -4.3 24.2
13:00 1018 30.06 848 25.04 3.5 38.2 57 -4.3 24.2
13:05 1018 30.06 848 25.04 3.4 38.2 57 -4.2 24.4
13:10 1018 30.06 848 25.04 3.4 38.1 57 -4.3 24.3
13:15 1018 30.06 848 25.04 3.4 38 55 -4.9 23.3
13:20 1018 30.06 848 25.04 3.3 37.9 57 -4.5 24
13:25 1018 30.06 847 25.01 3.4 38 57 -4.4 24
13:30 1018 30.06 847 25.01 3.4 38 56 -4.5 23.9
13:35 1018 30.06 847 25.01 3.4 38.1 57 -4.4 24.1
13:40 1018 30.06 847 25.01 3.4 38.2 56 -4.5 23.9
13:45 1018 30.06 847 25.01 3.5 38.2 55 -4.8 23.4
13:50 1018 30.06 847 25.01 3.4 38.1 56 -4.6 23.8
13:55 1018 30.06 847 25.01 3.4 38.2 56 -4.6 23.8
14:00 1018 30.06 847 25.01 3.5 38.3 56 -4.5 24
14:05 1018 30.06 847 25.01 3.4 38.2 56 -4.6 23.7
14:10 1018 30.06 847 25.01 3.5 38.2 56 -4.5 23.9
14:15 1018 30.06 847 25.01 3.4 38.1 56 -4.6 23.7
14:20 1018 30.06 847 25.01 3.4 38.1 56 -4.4 24
14:25 1018 30.06 847 25.01 3.5 38.2 56 -4.5 23.9
14:30 1018 30.06 847 25.01 3.4 38.2 56 -4.4 24.1
14:35 1018 30.06 847 25.01 3.5 38.3 55 -4.7 23.6
14:40 1018 30.06 847 25.01 3.3 38 59 -4 24.8
14:45 1018 30.06 847 25.01 2.7 36.8 62 -3.9 25.1
14:50 1018 30.06 847 25.01 2.4 36.4 62 -4.2 24.5
14:55 1018 30.06 847 25.01 2.3 36.1 62 -4.3 24.3
15:00 1018 30.06 847 25.01 2.2 35.9 63 -4.1 24.5
15:05 1018 30.06 847 25.01 2.2 35.9 62 -4.3 24.2
15:10 1018 30.06 847 25.01 2.2 35.9 63 -4.2 24.5
15:15 1018 30.06 847 25.01 2.2 35.9 63 -4.3 24.3
15:20 1018 30.06 847 25.01 2 35.6 63 -4.2 24.4
15:25 1018 30.06 847 25.01 1.9 35.5 63 -4.4 24
15:30 1018 30.06 847 25.01 1.9 35.5 62 -4.5 23.9
15:35 1018 30.06 847 25.01 2 35.7 61 -4.7 23.6
15:40 1018 30.06 847 25.01 2.1 35.8 61 -4.6 23.8
15:45 1018 30.06 847 25.01 2.2 36 61 -4.5 23.9
15:50 1018 30.06 847 25.01 2.3 36.1 61 -4.5 23.9
15:55 1018 30.06 847 25.01 2.3 36.2 60 -4.5 23.8
16:00 1018 30.06 847 25.01 2.4 36.2 59 -4.7 23.5
16:05 1018 30.06 847 25.01 2.4 36.3 59 -4.8 23.3
16:10 1018 30.06 848 25.04 2.4 36.3 60 -4.7 23.5
16:15 1018 30.06 848 25.04 2.3 36.1 60 -4.8 23.4
16:20 1018 30.06 848 25.04 2.4 36.3 59 -4.8 23.4
16:25 1018 30.06 848 25.04 2.4 36.3 62 -4.2 24.4
16:30 1019 30.09 848 25.04 2.2 36 61 -4.5 23.9
16:35 1019 30.09 848 25.04 2.2 36 62 -4.3 24.3
16:40 1019 30.09 848 25.04 2.3 36.1 61 -4.5 23.9
16:45 1019 30.09 848 25.04 2.1 35.7 63 -4.2 24.4
16:50 1019 30.09 848 25.04 2 35.5 63 -4.4 24.1
16:55 1019 30.09 848 25.04 2 35.7 63 -4.4 24.2
17:00 1019 30.09 848 25.04 2 35.6 59 -5.2 22.7
17:05 1019 30.09 848 25.04 2.3 36.2 58 -5.2 22.7
17:10 1018 30.06 848 25.04 2.6 36.6 57 -5 22.9
17:15 1018 30.06 848 25.04 2.6 36.6 58 -4.8 23.4
17:20 1018 30.06 848 25.04 2.6 36.7 59 -4.6 23.7
17:25 1018 30.06 848 25.04 2.5 36.5 61 -4.3 24.2
17:30 1018 30.06 848 25.04 2.4 36.4 62 -4.1 24.7
17:35 1019 30.09 848 25.04 2 35.6 67 -3.5 25.7
17:40 1019 30.09 848 25.04 1.6 34.8 67 -3.9 25
17:45 1019 30.09 848 25.04 1.6 34.9 66 -4 24.8
17:50 1019 30.09 848 25.04 1.7 35.1 63 -4.5 23.9
17:55 1019 30.09 848 25.04 1.8 35.2 69 -3.4 25.9
18:00 1019 30.09 848 25.04 1.3 34.4 70 -3.6 25.5
18:05 1019 30.09 848 25.04 1.5 34.7 69 -3.6 25.5
18:10 1019 30.09 848 25.04 1.5 34.8 69 -3.6 25.6
18:15 1019 30.09 848 25.04 1.4 34.5 70 -3.6 25.6
18:20 1019 30.09 848 25.04 1.2 34.2 69 -3.8 25.2
18:25 1019 30.09 848 25.04 1.3 34.4 68 -3.9 25
18:30 1019 30.09 848 25.04 1.4 34.6 68 -3.8 25.1
18:35 1019 30.09 848 25.04 1.5 34.6 66 -4.2 24.4
18:40 1019 30.09 848 25.04 1.5 34.7 66 -4.2 24.4
18:45 1019 30.09 848 25.04 1.5 34.6 65 -4.3 24.2
18:50 1019 30.09 848 25.04 1.8 35.2 62 -4.7 23.6
18:55 1019 30.09 848 25.04 1.8 35.3 62 -4.7 23.5
19:00 1019 30.09 848 25.04 1.7 35.1 64 -4.4 24.1
19:05 1019 30.09 848 25.04 1.7 35.1 63 -4.7 23.6
19:10 1019 30.09 848 25.04 2 35.6 61 -4.7 23.5
19:15 1019 30.09 848 25.04 2.1 35.9 60 -4.9 23.2
19:20 1019 30.09 848 25.04 2.2 36 59 -5 23.1
19:25 1019 30.09 848 25.04 2.2 36 60 -4.8 23.3
19:30 1019 30.09 848 25.04 2.4 36.3 58 -5 22.9
19:35 1019 30.09 848 25.04 2.5 36.5 58 -5 23
19:40 1019 30.09 848 25.04 2.6 36.7 58 -4.9 23.1
19:45 1019 30.09 848 25.04 2.6 36.7 59 -4.7 23.6
19:50 1019 30.09 848 25.04 2.5 36.5 60 -4.4 24.2
19:55 1019 30.09 848 25.04 2.2 36 64 -3.8 25.1
20:00 1019 30.09 848 25.04 1.8 35.3 64 -4.3 24.3
20:05 1018 30.06 848 25.04 1.7 35.1 66 -4 24.8
20:10 1018 30.06 847 25.01 1.5 34.7 66 -4.1 24.7
20:15 1018 30.06 847 25.01 1.3 34.3 65 -4.6 23.8
20:20 1018 30.06 847 25.01 1.2 34.2 66 -4.4 24.1
20:25 1018 30.06 847 25.01 1 33.7 67 -4.5 23.9
20:30 1018 30.06 847 25.01 0.9 33.5 68 -4.5 24
20:35 1018 30.06 847 25.01 0.9 33.6 67 -4.6 23.8
20:40 1018 30.06 847 25.01 1 33.8 64 -5 22.9
20:45 1018 30.06 847 25.01 1.3 34.3 64 -4.8 23.4
20:50 1018 30.06 847 25.01 1.5 34.6 64 -4.6 23.7
20:55 1018 30.06 847 25.01 1.1 34.1 65 -4.7 23.6
21:00 1018 30.06 847 25.01 0.7 33.3 68 -4.5 24
21:05 1018 30.06 847 25.01 0.1 32.2 71 -4.6 23.8
21:10 1018 30.06 847 25.01 -0.1 31.9 71 -4.6 23.7
21:15 1018 30.06 847 25.01 -0.3 31.4 71 -5 23
21:20 1018 30.06 847 25.01 0.2 32.3 68 -5 23
21:25 1018 30.06 847 25.01 0.2 32.4 69 -4.8 23.3
21:30 1018 30.06 847 25.01 0.2 32.4 66 -5.3 22.4
21:35 1018 30.06 847 25.01 0.3 32.6 66 -5.4 22.3
21:40 1018 30.06 847 25.01 0.7 33.2 63 -5.5 22.1
21:45 1018 30.06 847 25.01 0.6 33.1 64 -5.4 22.2
21:50 1018 30.06 847 25.01 0.7 33.3 65 -5.2 22.6
21:55 1018 30.06 847 25.01 0.6 33 64 -5.5 22
22:00 1018 30.06 847 25.01 0.6 33 64 -5.5 22
22:05 1018 30.06 847 25.01 0.4 32.7 64 -5.6 21.8
22:10 1018 30.06 847 25.01 0.2 32.4 64 -5.8 21.6
22:15 1018 30.06 847 25.01 0.1 32.2 65 -5.7 21.7
22:20 1017 30.03 847 25.01 0 32 66 -5.5 22.1
22:25 1018 30.06 847 25.01 -0.2 31.6 69 -5.3 22.4
22:30 1018 30.06 847 25.01 -0.6 30.8 71 -5.3 22.5
22:35 1018 30.06 847 25.01 -0.3 31.5 69 -5.2 22.6
22:40 1018 30.06 847 25.01 -0.4 31.4 70 -5.1 22.8
22:45 1017 30.03 847 25.01 -0.2 31.6 66 -5.8 21.6
22:50 1017 30.03 847 25.01 0 32 64 -6.1 21.1
22:55 1017 30.03 847 25.01 -0.1 31.8 65 -6 21.3
23:00 1018 30.06 847 25.01 -0.4 31.3 65 -6.1 21
23:05 1017 30.03 847 25.01 0.1 32.2 64 -6 21.2
23:10 1017 30.03 847 25.01 0.4 32.7 64 -5.7 21.8
23:15 1018 30.06 847 25.01 0.4 32.7 64 -5.6 21.9
23:20 1017 30.03 847 25.01 0.2 32.4 64 -5.9 21.5
23:25 1017 30.03 847 25.01 -0.1 31.8 65 -5.9 21.3
23:30 1017 30.03 846 24.98 -0.2 31.6 64 -6.2 20.9
23:35 1017 30.03 846 24.98 -0.2 31.7 64 -6.1 20.9
23:40 1017 30.03 846 24.98 -0.2 31.7 65 -6.1 21.1
23:45 1017 30.03 846 24.98 -0.5 31.2 65 -6.2 20.8
23:50 1017 30.03 846 24.98 -0.4 31.3 65 -6.1 21
23:55 1017 30.03 846 24.98 -0.5 31.2 65 -6.2 20.9
24:00 1017 30.03 846 24.98 -0.2 31.6 65 -6.1 21